createdAt,value
2018-02-07T18:09:06.407Z,11.93
2018-02-07T18:11:35.679Z,11.07
2018-02-07T18:14:03.948Z,11.50
2018-02-07T18:16:31.566Z,11.20
2018-02-07T18:18:59.112Z,10.13
2018-02-07T18:21:27.782Z,14.33
2018-02-07T18:23:55.772Z,13.63
2018-02-07T18:26:24.359Z,13.20
2018-02-07T18:28:52.236Z,13.80
2018-02-07T18:31:19.746Z,13.13
2018-02-07T18:33:48.012Z,12.50
2018-02-07T18:36:16.284Z,12.13
2018-02-07T18:38:43.881Z,17.40
2018-02-07T18:41:11.472Z,11.50
2018-02-07T18:43:40.466Z,11.57
2018-02-07T18:46:08.038Z,10.73
2018-02-07T18:48:35.521Z,11.00
2018-02-07T18:51:03.789Z,10.53
2018-02-07T18:53:32.059Z,11.40
2018-02-07T18:55:59.576Z,12.20
2018-02-07T18:58:27.081Z,10.23
2018-02-07T19:00:54.676Z,11.32
2018-02-07T19:03:22.250Z,12.90
2018-02-07T19:05:49.752Z,11.13
2018-02-07T19:08:17.260Z,12.50
2018-02-07T19:10:44.800Z,11.73
2018-02-07T19:13:13.101Z,11.37
2018-02-07T19:15:40.697Z,12.17
2018-02-07T19:18:08.257Z,11.03
2018-02-07T19:20:35.747Z,11.90
2018-02-07T19:23:03.242Z,13.37
2018-02-07T19:25:31.037Z,10.73
2018-02-07T19:27:58.529Z,12.30
2018-02-07T19:30:26.060Z,12.70
2018-02-07T19:32:53.635Z,12.67
2018-02-07T19:35:21.253Z,11.83
2018-02-07T19:37:48.756Z,11.37
2018-02-07T19:40:17.014Z,12.90
2018-02-07T19:42:45.770Z,11.00
2018-02-07T19:45:13.285Z,11.20
2018-02-07T19:47:41.590Z,10.90
2018-02-07T19:50:09.557Z,11.50
2018-02-07T19:52:37.179Z,12.60
2018-02-07T19:55:05.499Z,12.63
2018-02-07T19:57:33.034Z,12.30
2018-02-07T20:00:01.298Z,12.43
2018-02-07T20:02:29.547Z,13.00
2018-02-07T20:04:57.028Z,11.43
2018-02-07T20:07:24.549Z,11.20
2018-02-07T20:09:52.059Z,11.40
2018-02-07T20:12:19.582Z,11.70
2018-02-07T20:14:47.863Z,11.87
2018-02-07T20:17:16.121Z,11.87
2018-02-07T20:19:43.657Z,11.23
2018-02-07T20:22:11.156Z,11.80
2018-02-07T20:24:39.520Z,12.60
2018-02-07T20:27:07.111Z,14.17
2018-02-07T20:29:34.605Z,14.03
2018-02-07T20:32:02.120Z,13.40
2018-02-07T20:34:30.361Z,14.20
2018-02-07T20:36:57.943Z,12.90
2018-02-07T20:39:25.477Z,14.03
2018-02-07T20:41:53.274Z,15.17
2018-02-07T20:44:20.741Z,14.57
2018-02-07T20:46:48.235Z,14.30
2018-02-07T20:49:15.731Z,13.00
2018-02-07T20:51:43.977Z,13.60
2018-02-07T20:54:11.614Z,12.47
2018-02-07T20:56:39.153Z,11.87
2018-02-07T20:59:06.684Z,11.73
2018-02-07T21:01:34.173Z,11.87
2018-02-07T21:04:01.713Z,11.93
2018-02-07T21:06:30.023Z,12.10
2018-02-07T21:08:57.555Z,11.70
2018-02-07T21:11:25.068Z,11.80
2018-02-07T21:13:52.642Z,11.93
2018-02-07T21:16:20.134Z,11.40
2018-02-07T21:18:47.628Z,10.87
2018-02-07T21:21:15.580Z,10.93
2018-02-07T21:23:43.081Z,11.20
2018-02-07T21:26:11.396Z,11.40
2018-02-07T21:28:39.682Z,11.00
2018-02-07T21:31:07.286Z,11.37
2018-02-07T21:33:35.554Z,11.30
2018-02-07T21:36:03.387Z,9.93
2018-02-07T21:38:30.905Z,11.07
2018-02-07T21:40:59.273Z,10.47
2018-02-07T21:43:26.814Z,11.63
2018-02-07T21:45:54.338Z,9.47
2018-02-07T21:48:21.839Z,9.93
2018-02-07T21:50:49.706Z,9.50
2018-02-07T21:53:17.457Z,10.90
2018-02-07T21:55:45.015Z,10.17
2018-02-07T21:58:12.627Z,9.40
2018-02-07T22:00:40.203Z,10.50
2018-02-07T22:03:07.695Z,9.53
2018-02-07T22:05:35.533Z,9.67
2018-02-07T22:08:03.076Z,9.80
2018-02-07T22:10:30.599Z,8.63
2018-02-07T22:12:58.842Z,9.37
2018-02-07T22:15:26.490Z,9.03
2018-02-07T22:17:53.940Z,8.37
2018-02-07T22:20:21.915Z,9.73
2018-02-07T22:22:49.617Z,9.23
2018-02-07T22:25:17.344Z,8.73
2018-02-07T22:27:45.194Z,9.07
2018-02-07T22:30:13.061Z,8.90
2018-02-07T22:32:40.618Z,8.93
2018-02-07T22:35:08.488Z,9.60
2018-02-07T22:37:37.085Z,8.67
2018-02-07T22:40:04.564Z,8.73
2018-02-07T22:42:32.038Z,9.23
2018-02-07T22:45:00.325Z,10.00
2018-02-07T22:47:28.646Z,9.27
2018-02-07T22:49:56.366Z,9.73
2018-02-07T22:52:24.177Z,9.80
2018-02-07T22:54:51.812Z,9.73
2018-02-07T22:57:19.451Z,10.57
2018-02-07T22:59:47.784Z,9.87
2018-02-07T23:02:15.274Z,9.50
2018-02-07T23:04:43.515Z,9.77
2018-02-07T23:07:11.010Z,9.60
2018-02-07T23:09:39.374Z,10.90
2018-02-07T23:12:06.890Z,10.20
2018-02-07T23:14:34.478Z,10.40
2018-02-07T23:17:02.039Z,10.77
2018-02-07T23:19:30.333Z,9.93
2018-02-07T23:21:58.586Z,10.07
2018-02-07T23:24:26.140Z,10.50
2018-02-07T23:26:53.697Z,8.53
2018-02-07T23:29:21.197Z,10.10
2018-02-07T23:31:48.853Z,9.43
2018-02-07T23:34:17.153Z,9.80
2018-02-07T23:36:44.713Z,10.63
2018-02-07T23:39:12.991Z,9.40
2018-02-07T23:41:40.489Z,11.13
2018-02-07T23:44:07.983Z,10.70
2018-02-07T23:46:35.470Z,9.50
2018-02-07T23:49:02.969Z,9.10
2018-02-07T23:51:30.966Z,10.50
2018-02-07T23:53:59.382Z,10.50
2018-02-07T23:56:27.032Z,10.50
2018-02-07T23:58:54.724Z,10.32
